sensor_id;sensor_type;location;lat;lon;timestamp;pressure;altitude;pressure_sealevel;temperature;humidity
51781;BME280;37844;57.126;24.288;2023-07-20T00:01:29;100419.13;;;15.38;100.00
51781;BME280;37844;57.126;24.288;2023-07-20T00:04:14;100416.66;;;15.27;100.00
51781;BME280;37844;57.126;24.288;2023-07-20T00:06:58;100416.66;;;15.25;100.00
51781;BME280;37844;57.126;24.288;2023-07-20T00:09:44;100415.94;;;15.13;100.00
51781;BME280;37844;57.126;24.288;2023-07-20T00:12:29;100409.97;;;15.06;100.00
51781;BME280;37844;57.126;24.288;2023-07-20T00:15:13;100414.34;;;14.99;100.00
51781;BME280;37844;57.126;24.288;2023-07-20T00:17:57;100410.94;;;14.97;100.00
51781;BME280;37844;57.126;24.288;2023-07-20T00:20:41;100417.03;;;14.92;100.00
51781;BME280;37844;57.126;24.288;2023-07-20T00:23:26;100420.53;;;14.89;100.00
51781;BME280;37844;57.126;24.288;2023-07-20T00:26:10;100417.97;;;14.84;100.00
51781;BME280;37844;57.126;24.288;2023-07-20T00:28:54;100412.88;;;14.78;100.00
51781;BME280;37844;57.126;24.288;2023-07-20T00:31:38;100416.34;;;14.74;100.00
51781;BME280;37844;57.126;24.288;2023-07-20T00:34:21;100413.84;;;14.67;100.00
51781;BME280;37844;57.126;24.288;2023-07-20T00:37:05;100419.91;;;14.62;100.00
51781;BME280;37844;57.126;24.288;2023-07-20T00:39:51;100422.63;;;14.46;100.00
51781;BME280;37844;57.126;24.288;2023-07-20T00:42:35;100421.75;;;14.48;100.00
51781;BME280;37844;57.126;24.288;2023-07-20T00:45:19;100420.84;;;14.51;100.00
51781;BME280;37844;57.126;24.288;2023-07-20T00:48:04;100418.28;;;14.48;100.00
51781;BME280;37844;57.126;24.288;2023-07-20T00:50:50;100422.63;;;14.42;100.00
51781;BME280;37844;57.126;24.288;2023-07-20T00:53:34;100422.72;;;14.30;100.00
51781;BME280;37844;57.126;24.288;2023-07-20T00:56:19;100424.56;;;14.17;100.00
51781;BME280;37844;57.126;24.288;2023-07-20T00:59:06;100419.38;;;14.16;100.00
51781;BME280;37844;57.126;24.288;2023-07-20T01:01:50;100424.50;;;14.25;100.00
51781;BME280;37844;57.126;24.288;2023-07-20T01:04:35;100414.09;;;14.28;100.00
51781;BME280;37844;57.126;24.288;2023-07-20T01:07:31;100415.06;;;14.19;100.00
51781;BME280;37844;57.126;24.288;2023-07-20T01:10:25;100424.59;;;14.13;100.00
51781;BME280;37844;57.126;24.288;2023-07-20T01:13:13;100421.19;;;14.02;100.00
51781;BME280;37844;57.126;24.288;2023-07-20T01:16:00;100417.84;;;13.87;100.00
51781;BME280;37844;57.126;24.288;2023-07-20T01:18:45;100423.88;;;13.89;100.00
51781;BME280;37844;57.126;24.288;2023-07-20T01:21:48;100408.34;;;13.89;100.00
51781;BME280;37844;57.126;24.288;2023-07-20T01:30:55;100403.16;;;13.91;100.00
51781;BME280;37844;57.126;24.288;2023-07-20T01:33:41;100404.00;;;13.90;100.00
51781;BME280;37844;57.126;24.288;2023-07-20T01:36:28;100404.00;;;13.90;100.00
51781;BME280;37844;57.126;24.288;2023-07-20T01:39:12;100402.25;;;13.90;100.00
51781;BME280;37844;57.126;24.288;2023-07-20T01:41:58;100402.25;;;13.90;100.00
51781;BME280;37844;57.126;24.288;2023-07-20T01:44:42;100398.81;;;13.93;100.00
51781;BME280;37844;57.126;24.288;2023-07-20T01:47:26;100400.50;;;13.97;100.00
51781;BME280;37844;57.126;24.288;2023-07-20T01:50:10;100397.91;;;13.97;100.00
51781;BME280;37844;57.126;24.288;2023-07-20T01:52:54;100399.63;;;14.01;100.00
51781;BME280;37844;57.126;24.288;2023-07-20T01:55:39;100392.69;;;14.02;100.00
51781;BME280;37844;57.126;24.288;2023-07-20T01:58:23;100395.19;;;14.15;100.00
51781;BME280;37844;57.126;24.288;2023-07-20T02:01:07;100397.78;;;14.17;100.00
51781;BME280;37844;57.126;24.288;2023-07-20T02:03:51;100392.56;;;14.21;100.00
51781;BME280;37844;57.126;24.288;2023-07-20T02:06:35;100390.88;;;14.19;100.00
51781;BME280;37844;57.126;24.288;2023-07-20T02:13:00;100391.78;;;14.12;100.00
51781;BME280;37844;57.126;24.288;2023-07-20T02:15:44;100394.41;;;14.07;100.00
51781;BME280;37844;57.126;24.288;2023-07-20T02:18:28;100391.78;;;14.09;100.00
51781;BME280;37844;57.126;24.288;2023-07-20T02:21:12;100385.00;;;13.89;100.00
51781;BME280;37844;57.126;24.288;2023-07-20T02:23:57;100397.06;;;13.96;100.00
51781;BME280;37844;57.126;24.288;2023-07-20T02:26:41;100393.63;;;13.96;100.00
51781;BME280;37844;57.126;24.288;2023-07-20T02:29:25;100399.66;;;13.95;100.00
51781;BME280;37844;57.126;24.288;2023-07-20T02:32:09;100395.31;;;13.97;100.00
51781;BME280;37844;57.126;24.288;2023-07-20T02:34:54;100394.47;;;13.96;100.00
51781;BME280;37844;57.126;24.288;2023-07-20T02:37:38;100395.38;;;13.91;100.00
51781;BME280;37844;57.126;24.288;2023-07-20T02:40:22;100389.38;;;13.83;100.00
51781;BME280;37844;57.126;24.288;2023-07-20T02:43:06;100389.38;;;13.83;100.00
51781;BME280;37844;57.126;24.288;2023-07-20T02:45:51;100388.53;;;13.77;100.00
51781;BME280;37844;57.126;24.288;2023-07-20T02:48:35;100386.84;;;13.76;100.00
51781;BME280;37844;57.126;24.288;2023-07-20T02:51:19;100390.25;;;13.82;100.00
51781;BME280;37844;57.126;24.288;2023-07-20T02:54:06;100391.97;;;13.84;100.00
51781;BME280;37844;57.126;24.288;2023-07-20T02:56:50;100393.72;;;13.77;100.00
51781;BME280;37844;57.126;24.288;2023-07-20T02:59:34;100395.50;;;13.66;100.00
51781;BME280;37844;57.126;24.288;2023-07-20T03:02:18;100387.75;;;13.69;100.00
51781;BME280;37844;57.126;24.288;2023-07-20T03:05:02;100385.97;;;13.73;100.00
51781;BME280;37844;57.126;24.288;2023-07-20T03:07:49;100388.53;;;13.79;100.00
51781;BME280;37844;57.126;24.288;2023-07-20T03:10:40;100391.97;;;13.86;100.00
51781;BME280;37844;57.126;24.288;2023-07-20T03:13:25;100388.47;;;13.87;100.00
51781;BME280;37844;57.126;24.288;2023-07-20T03:16:09;100398.81;;;13.93;100.00
51781;BME280;37844;57.126;24.288;2023-07-20T03:18:55;100391.84;;;13.99;100.00
51781;BME280;37844;57.126;24.288;2023-07-20T03:21:39;100392.72;;;14.00;100.00
51781;BME280;37844;57.126;24.288;2023-07-20T03:24:25;100393.63;;;13.96;100.00
51781;BME280;37844;57.126;24.288;2023-07-20T03:27:09;100394.41;;;14.04;100.00
51781;BME280;37844;57.126;24.288;2023-07-20T03:29:53;100406.53;;;13.97;100.00
51781;BME280;37844;57.126;24.288;2023-07-20T03:32:37;100402.22;;;14.03;100.00
51781;BME280;37844;57.126;24.288;2023-07-20T03:35:22;100396.94;;;14.15;100.00
51781;BME280;37844;57.126;24.288;2023-07-20T03:38:07;100400.38;;;14.15;100.00
51781;BME280;37844;57.126;24.288;2023-07-20T03:40:57;100397.72;;;14.23;100.00
51781;BME280;37844;57.126;24.288;2023-07-20T03:43:41;100385.72;;;14.13;100.00
51781;BME280;37844;57.126;24.288;2023-07-20T03:46:25;100406.31;;;14.30;100.00
51781;BME280;37844;57.126;24.288;2023-07-20T03:49:09;100397.66;;;14.32;100.00
51781;BME280;37844;57.126;24.288;2023-07-20T03:51:53;100406.19;;;14.47;100.00
51781;BME280;37844;57.126;24.288;2023-07-20T03:54:37;100407.88;;;14.54;100.00
51781;BME280;37844;57.126;24.288;2023-07-20T03:57:21;100401.84;;;14.49;100.00
51781;BME280;37844;57.126;24.288;2023-07-20T04:00:06;100405.22;;;14.63;100.00
51781;BME280;37844;57.126;24.288;2023-07-20T04:02:51;100406.81;;;14.76;100.00
51781;BME280;37844;57.126;24.288;2023-07-20T04:05:35;100406.75;;;14.84;100.00
51781;BME280;37844;57.126;24.288;2023-07-20T04:08:19;100406.75;;;14.82;100.00
51781;BME280;37844;57.126;24.288;2023-07-20T04:11:03;100398.00;;;14.93;100.00
51781;BME280;37844;57.126;24.288;2023-07-20T04:13:47;100396.28;;;14.92;100.00
51781;BME280;37844;57.126;24.288;2023-07-20T04:16:31;100392.72;;;15.02;100.00
51781;BME280;37844;57.126;24.288;2023-07-20T04:19:17;100395.19;;;15.14;100.00
51781;BME280;37844;57.126;24.288;2023-07-20T04:22:02;100388.00;;;15.35;100.00
51781;BME280;37844;57.126;24.288;2023-07-20T04:24:47;100389.34;;;15.63;100.00
51781;BME280;37844;57.126;24.288;2023-07-20T04:27:31;100397.84;;;15.78;100.00
51781;BME280;37844;57.126;24.288;2023-07-20T04:30:17;100398.81;;;15.69;100.00
51781;BME280;37844;57.126;24.288;2023-07-20T04:33:03;100395.34;;;15.73;100.00
51781;BME280;37844;57.126;24.288;2023-07-20T04:35:52;100405.63;;;15.79;100.00
51781;BME280;37844;57.126;24.288;2023-07-20T04:38:36;100407.31;;;15.82;100.00
51781;BME280;37844;57.126;24.288;2023-07-20T04:41:20;100406.28;;;15.94;100.00
51781;BME280;37844;57.126;24.288;2023-07-20T04:44:12;100412.13;;;16.09;100.00
51781;BME280;37844;57.126;24.288;2023-07-20T04:47:03;100407.91;;;16.02;100.00
51781;BME280;37844;57.126;24.288;2023-07-20T04:49:48;100406.16;;;16.01;100.00
51781;BME280;37844;57.126;24.288;2023-07-20T04:52:36;100410.38;;;16.11;100.00
51781;BME280;37844;57.126;24.288;2023-07-20T04:55:20;100405.88;;;16.21;100.00
51781;BME280;37844;57.126;24.288;2023-07-20T04:58:05;100402.16;;;16.38;100.00
51781;BME280;37844;57.126;24.288;2023-07-20T05:00:50;100399.13;;;16.62;100.00
51781;BME280;37844;57.126;24.288;2023-07-20T05:03:34;100393.84;;;16.65;100.00
51781;BME280;37844;57.126;24.288;2023-07-20T05:06:18;100395.66;;;16.62;100.00
51781;BME280;37844;57.126;24.288;2023-07-20T05:09:03;100385.09;;;16.71;100.00
51781;BME280;37844;57.126;24.288;2023-07-20T05:11:48;100376.47;;;16.69;100.00
51781;BME280;37844;57.126;24.288;2023-07-20T05:14:32;100371.97;;;16.79;100.00
51781;BME280;37844;57.126;24.288;2023-07-20T05:17:17;100373.25;;;17.03;100.00
51781;BME280;37844;57.126;24.288;2023-07-20T05:20:01;100374.56;;;17.24;100.00
51781;BME280;37844;57.126;24.288;2023-07-20T05:22:47;100366.78;;;17.22;100.00
51781;BME280;37844;57.126;24.288;2023-07-20T05:25:32;100385.66;;;17.32;100.00
51781;BME280;37844;57.126;24.288;2023-07-20T05:28:17;100388.44;;;17.24;100.00
51781;BME280;37844;57.126;24.288;2023-07-20T05:31:02;100386.09;;;17.12;100.00
51781;BME280;37844;57.126;24.288;2023-07-20T05:33:47;100391.63;;;17.38;100.00
51781;BME280;37844;57.126;24.288;2023-07-20T05:36:31;100396.72;;;17.85;100.00
51781;BME280;37844;57.126;24.288;2023-07-20T05:39:17;100374.75;;;18.31;100.00
51781;BME280;37844;57.126;24.288;2023-07-20T05:42:02;100379.25;;;18.60;100.00
51781;BME280;37844;57.126;24.288;2023-07-20T05:48:08;100386.22;;;18.94;100.00
51781;BME280;37844;57.126;24.288;2023-07-20T05:50:54;100392.25;;;18.96;100.00
51781;BME280;37844;57.126;24.288;2023-07-20T05:53:38;100388.31;;;19.13;100.00
51781;BME280;37844;57.126;24.288;2023-07-20T05:56:22;100390.94;;;19.42;100.00
51781;BME280;37844;57.126;24.288;2023-07-20T05:59:06;100392.63;;;19.75;100.00
51781;BME280;37844;57.126;24.288;2023-07-20T06:01:50;100388.25;;;20.03;100.00
51781;BME280;37844;57.126;24.288;2023-07-20T06:04:34;100376.78;;;20.34;100.00
51781;BME280;37844;57.126;24.288;2023-07-20T06:07:18;100390.63;;;20.38;100.00
51781;BME280;37844;57.126;24.288;2023-07-20T06:10:02;100382.09;;;20.31;100.00
51781;BME280;37844;57.126;24.288;2023-07-20T06:12:47;100376.63;;;20.39;100.00
51781;BME280;37844;57.126;24.288;2023-07-20T06:15:33;100397.28;;;19.93;100.00
51781;BME280;37844;57.126;24.288;2023-07-20T06:18:19;100383.69;;;19.82;100.00
51781;BME280;37844;57.126;24.288;2023-07-20T06:21:05;100387.41;;;20.03;100.00
51781;BME280;37844;57.126;24.288;2023-07-20T06:23:49;100387.28;;;19.79;100.00
51781;BME280;37844;57.126;24.288;2023-07-20T06:26:34;100387.66;;;19.65;100.00
51781;BME280;37844;57.126;24.288;2023-07-20T06:29:22;100388.53;;;19.36;100.00
51781;BME280;37844;57.126;24.288;2023-07-20T06:32:07;100392.59;;;19.45;100.00
51781;BME280;37844;57.126;24.288;2023-07-20T06:34:52;100390.31;;;19.64;100.00
51781;BME280;37844;57.126;24.288;2023-07-20T06:37:38;100395.31;;;20.00;100.00
51781;BME280;37844;57.126;24.288;2023-07-20T06:40:23;100398.16;;;20.47;100.00
51781;BME280;37844;57.126;24.288;2023-07-20T06:43:07;100385.88;;;21.24;99.79
51781;BME280;37844;57.126;24.288;2023-07-20T06:45:54;100383.41;;;22.33;93.92
51781;BME280;37844;57.126;24.288;2023-07-20T06:48:38;100390.66;;;23.10;88.46
51781;BME280;37844;57.126;24.288;2023-07-20T06:51:23;100381.81;;;23.50;82.24
51781;BME280;37844;57.126;24.288;2023-07-20T06:54:07;100399.19;;;24.27;78.76
51781;BME280;37844;57.126;24.288;2023-07-20T06:56:53;100384.72;;;24.88;74.63
51781;BME280;37844;57.126;24.288;2023-07-20T06:59:37;100391.00;;;25.52;72.54
51781;BME280;37844;57.126;24.288;2023-07-20T07:02:30;100383.63;;;26.51;69.12
51781;BME280;37844;57.126;24.288;2023-07-20T07:05:16;100380.41;;;27.33;65.16
51781;BME280;37844;57.126;24.288;2023-07-20T07:08:02;100393.31;;;26.66;63.46
51781;BME280;37844;57.126;24.288;2023-07-20T07:10:46;100379.91;;;26.69;62.71
51781;BME280;37844;57.126;24.288;2023-07-20T07:13:37;100385.91;;;27.30;61.85
51781;BME280;37844;57.126;24.288;2023-07-20T07:16:21;100383.59;;;26.95;60.73
51781;BME280;37844;57.126;24.288;2023-07-20T07:19:05;100385.84;;;28.40;59.55
51781;BME280;37844;57.126;24.288;2023-07-20T07:21:51;100384.88;;;29.69;57.32
51781;BME280;37844;57.126;24.288;2023-07-20T07:24:35;100381.19;;;31.45;54.76
51781;BME280;37844;57.126;24.288;2023-07-20T07:27:20;100381.78;;;32.57;50.94
51781;BME280;37844;57.126;24.288;2023-07-20T07:30:04;100379.03;;;32.99;48.86
51781;BME280;37844;57.126;24.288;2023-07-20T07:32:49;100379.13;;;32.46;47.75
51781;BME280;37844;57.126;24.288;2023-07-20T07:35:33;100382.31;;;32.82;48.10
51781;BME280;37844;57.126;24.288;2023-07-20T07:38:19;100381.13;;;33.67;46.87
51781;BME280;37844;57.126;24.288;2023-07-20T07:41:03;100375.25;;;34.41;45.22
51781;BME280;37844;57.126;24.288;2023-07-20T07:43:47;100377.66;;;35.29;43.71
51781;BME280;37844;57.126;24.288;2023-07-20T07:46:31;100372.06;;;35.40;42.89
51781;BME280;37844;57.126;24.288;2023-07-20T07:49:16;100375.44;;;36.23;42.33
51781;BME280;37844;57.126;24.288;2023-07-20T07:52:00;100377.13;;;37.03;40.99
51781;BME280;37844;57.126;24.288;2023-07-20T07:54:46;100371.72;;;37.29;39.76
51781;BME280;37844;57.126;24.288;2023-07-20T07:57:30;100374.41;;;37.29;39.90
51781;BME280;37844;57.126;24.288;2023-07-20T08:00:14;100372.75;;;38.03;39.21
51781;BME280;37844;57.126;24.288;2023-07-20T08:02:59;100376.81;;;36.71;39.96
51781;BME280;37844;57.126;24.288;2023-07-20T08:05:43;100368.16;;;35.98;39.78
51781;BME280;37844;57.126;24.288;2023-07-20T08:08:27;100372.00;;;36.83;40.21
51781;BME280;37844;57.126;24.288;2023-07-20T08:11:11;100359.84;;;37.05;38.12
51781;BME280;37844;57.126;24.288;2023-07-20T08:13:55;100367.16;;;36.61;37.98
51781;BME280;37844;57.126;24.288;2023-07-20T08:16:46;100375.25;;;36.17;39.63
51781;BME280;37844;57.126;24.288;2023-07-20T08:19:31;100371.59;;;35.90;39.73
51781;BME280;37844;57.126;24.288;2023-07-20T08:22:15;100377.81;;;35.27;40.98
51781;BME280;37844;57.126;24.288;2023-07-20T08:24:59;100379.97;;;35.14;40.38
51781;BME280;37844;57.126;24.288;2023-07-20T08:27:43;100381.28;;;34.62;39.54
51781;BME280;37844;57.126;24.288;2023-07-20T08:30:48;100382.25;;;33.84;41.18
51781;BME280;37844;57.126;24.288;2023-07-20T08:33:33;100386.06;;;33.81;41.49
51781;BME280;37844;57.126;24.288;2023-07-20T08:36:17;100384.44;;;33.49;43.30
51781;BME280;37844;57.126;24.288;2023-07-20T08:39:01;100399.91;;;32.42;43.20
51781;BME280;37844;57.126;24.288;2023-07-20T08:41:48;100397.81;;;31.81;44.17
51781;BME280;37844;57.126;24.288;2023-07-20T08:44:33;100398.91;;;31.90;44.35
51781;BME280;37844;57.126;24.288;2023-07-20T08:47:20;100405.50;;;31.63;44.50
51781;BME280;37844;57.126;24.288;2023-07-20T08:50:08;100400.13;;;31.75;42.71
51781;BME280;37844;57.126;24.288;2023-07-20T08:52:53;100404.34;;;31.45;43.13
51781;BME280;37844;57.126;24.288;2023-07-20T08:55:44;100401.28;;;30.93;43.88
51781;BME280;37844;57.126;24.288;2023-07-20T08:58:29;100403.09;;;31.15;44.78
51781;BME280;37844;57.126;24.288;2023-07-20T09:01:14;100399.44;;;30.82;43.67
51781;BME280;37844;57.126;24.288;2023-07-20T09:03:59;100396.16;;;30.79;42.97
51781;BME280;37844;57.126;24.288;2023-07-20T09:06:43;100399.34;;;30.84;43.59
51781;BME280;37844;57.126;24.288;2023-07-20T09:09:27;100401.38;;;30.80;43.88
51781;BME280;37844;57.126;24.288;2023-07-20T09:12:15;100409.22;;;30.82;42.91
51781;BME280;37844;57.126;24.288;2023-07-20T09:14:59;100407.69;;;31.13;43.56
51781;BME280;37844;57.126;24.288;2023-07-20T09:17:49;100405.03;;;31.24;43.79
51781;BME280;37844;57.126;24.288;2023-07-20T09:20:33;100403.94;;;31.38;43.91
51781;BME280;37844;57.126;24.288;2023-07-20T09:23:18;100415.22;;;32.08;43.34
51781;BME280;37844;57.126;24.288;2023-07-20T09:26:15;100412.41;;;32.42;43.70
51781;BME280;37844;57.126;24.288;2023-07-20T09:28:59;100414.06;;;32.54;42.61
51781;BME280;37844;57.126;24.288;2023-07-20T09:31:58;100421.09;;;32.55;42.80
51781;BME280;37844;57.126;24.288;2023-07-20T09:34:43;100431.53;;;31.03;42.46
51781;BME280;37844;57.126;24.288;2023-07-20T09:37:27;100450.81;;;27.79;45.81
51781;BME280;37844;57.126;24.288;2023-07-20T09:40:15;100470.38;;;26.28;48.74
51781;BME280;37844;57.126;24.288;2023-07-20T09:43:00;100466.28;;;25.59;50.38
51781;BME280;37844;57.126;24.288;2023-07-20T09:45:47;100453.25;;;25.23;50.56
51781;BME280;37844;57.126;24.288;2023-07-20T09:48:32;100462.78;;;24.55;51.38
51781;BME280;37844;57.126;24.288;2023-07-20T09:51:17;100463.53;;;24.04;53.60
51781;BME280;37844;57.126;24.288;2023-07-20T09:54:03;100485.06;;;23.55;55.25
51781;BME280;37844;57.126;24.288;2023-07-20T09:56:48;100483.94;;;23.01;56.02
51781;BME280;37844;57.126;24.288;2023-07-20T09:59:33;100487.59;;;22.32;60.58
51781;BME280;37844;57.126;24.288;2023-07-20T10:02:24;100472.53;;;21.68;64.12
51781;BME280;37844;57.126;24.288;2023-07-20T10:05:12;100486.50;;;21.92;69.20
51781;BME280;37844;57.126;24.288;2023-07-20T10:07:57;100483.41;;;22.50;72.15
51781;BME280;37844;57.126;24.288;2023-07-20T10:10:42;100483.25;;;22.53;73.07
51781;BME280;37844;57.126;24.288;2023-07-20T10:13:29;100478.50;;;22.19;70.83
51781;BME280;37844;57.126;24.288;2023-07-20T10:16:38;100475.72;;;22.23;71.67
51781;BME280;37844;57.126;24.288;2023-07-20T10:19:42;100463.25;;;22.29;70.87
51781;BME280;37844;57.126;24.288;2023-07-20T10:22:31;100478.16;;;22.28;71.40
51781;BME280;37844;57.126;24.288;2023-07-20T10:25:20;100480.50;;;22.12;71.30
51781;BME280;37844;57.126;24.288;2023-07-20T10:28:06;100487.34;;;22.16;71.31
51781;BME280;37844;57.126;24.288;2023-07-20T10:30:50;100480.16;;;22.21;68.69
51781;BME280;37844;57.126;24.288;2023-07-20T10:33:36;100486.72;;;22.54;68.83
51781;BME280;37844;57.126;24.288;2023-07-20T10:36:25;100474.78;;;22.47;66.80
51781;BME280;37844;57.126;24.288;2023-07-20T10:39:25;100475.84;;;22.42;65.76
51781;BME280;37844;57.126;24.288;2023-07-20T10:42:11;100475.84;;;22.42;66.70
51781;BME280;37844;57.126;24.288;2023-07-20T10:44:55;100471.34;;;22.44;66.82
51781;BME280;37844;57.126;24.288;2023-07-20T10:47:45;100471.63;;;22.38;68.21
51781;BME280;37844;57.126;24.288;2023-07-20T10:50:29;100472.44;;;22.61;68.45
51781;BME280;37844;57.126;24.288;2023-07-20T10:53:14;100467.44;;;22.75;67.46
51781;BME280;37844;57.126;24.288;2023-07-20T10:56:12;100474.72;;;23.11;65.19
51781;BME280;37844;57.126;24.288;2023-07-20T10:58:58;100467.91;;;23.07;64.00
51781;BME280;37844;57.126;24.288;2023-07-20T11:01:46;100463.47;;;23.28;62.48
51781;BME280;37844;57.126;24.288;2023-07-20T11:04:43;100473.00;;;23.31;62.29
51781;BME280;37844;57.126;24.288;2023-07-20T11:07:38;100473.81;;;23.12;62.34
51781;BME280;37844;57.126;24.288;2023-07-20T11:10:22;100469.34;;;23.14;59.57
51781;BME280;37844;57.126;24.288;2023-07-20T11:13:20;100466.41;;;23.41;59.65
51781;BME280;37844;57.126;24.288;2023-07-20T11:16:06;100474.31;;;23.20;59.10
51781;BME280;37844;57.126;24.288;2023-07-20T11:18:51;100464.91;;;22.74;60.55
51781;BME280;37844;57.126;24.288;2023-07-20T11:21:37;100460.38;;;22.98;60.72
51781;BME280;37844;57.126;24.288;2023-07-20T11:24:22;100462.97;;;22.99;60.37
51781;BME280;37844;57.126;24.288;2023-07-20T11:27:06;100451.03;;;23.11;61.56
51781;BME280;37844;57.126;24.288;2023-07-20T11:29:50;100462.50;;;23.31;61.83
51781;BME280;37844;57.126;24.288;2023-07-20T11:32:34;100455.19;;;23.37;61.08
51781;BME280;37844;57.126;24.288;2023-07-20T11:35:18;100446.34;;;23.38;61.74
51781;BME280;37844;57.126;24.288;2023-07-20T11:38:03;100453.25;;;23.41;61.07
51781;BME280;37844;57.126;24.288;2023-07-20T11:40:47;100452.66;;;23.34;61.81
51781;BME280;37844;57.126;24.288;2023-07-20T11:43:31;100448.81;;;23.22;63.13
51781;BME280;37844;57.126;24.288;2023-07-20T11:46:15;100459.56;;;23.37;61.41
51781;BME280;37844;57.126;24.288;2023-07-20T11:49:00;100453.41;;;23.38;62.25
51781;BME280;37844;57.126;24.288;2023-07-20T11:51:45;100456.50;;;23.27;61.11
51781;BME280;37844;57.126;24.288;2023-07-20T11:54:30;100449.75;;;23.21;60.65
51781;BME280;37844;57.126;24.288;2023-07-20T11:57:19;100461.72;;;23.08;60.80
51781;BME280;37844;57.126;24.288;2023-07-20T12:00:04;100445.53;;;23.17;61.67
51781;BME280;37844;57.126;24.288;2023-07-20T12:02:53;100465.31;;;23.26;62.14
51781;BME280;37844;57.126;24.288;2023-07-20T12:05:38;100457.94;;;23.34;60.61
51781;BME280;37844;57.126;24.288;2023-07-20T12:08:22;100453.06;;;23.25;62.68
51781;BME280;37844;57.126;24.288;2023-07-20T12:11:07;100450.44;;;23.25;61.55
51781;BME280;37844;57.126;24.288;2023-07-20T12:13:52;100453.47;;;23.16;61.40
51781;BME280;37844;57.126;24.288;2023-07-20T12:16:36;100440.81;;;23.25;62.95
51781;BME280;37844;57.126;24.288;2023-07-20T12:19:25;100447.56;;;23.31;63.74
51781;BME280;37844;57.126;24.288;2023-07-20T12:22:09;100451.31;;;23.25;63.62
51781;BME280;37844;57.126;24.288;2023-07-20T12:24:55;100450.25;;;23.48;62.76
51781;BME280;37844;57.126;24.288;2023-07-20T12:27:39;100443.66;;;23.40;59.39
51781;BME280;37844;57.126;24.288;2023-07-20T12:30:23;100446.50;;;22.94;60.20
51781;BME280;37844;57.126;24.288;2023-07-20T12:33:08;100444.69;;;22.76;60.74
51781;BME280;37844;57.126;24.288;2023-07-20T12:35:52;100441.16;;;22.75;60.28
51781;BME280;37844;57.126;24.288;2023-07-20T12:38:40;100435.28;;;22.91;61.23
51781;BME280;37844;57.126;24.288;2023-07-20T12:41:25;100440.69;;;23.08;61.70
51781;BME280;37844;57.126;24.288;2023-07-20T12:44:09;100435.94;;;23.16;60.68
51781;BME280;37844;57.126;24.288;2023-07-20T12:46:53;100439.03;;;23.26;60.48
51781;BME280;37844;57.126;24.288;2023-07-20T12:49:37;100435.19;;;23.33;59.89
51781;BME280;37844;57.126;24.288;2023-07-20T12:52:21;100440.47;;;23.13;57.92
51781;BME280;37844;57.126;24.288;2023-07-20T12:55:09;100435.31;;;23.30;57.37
51781;BME280;37844;57.126;24.288;2023-07-20T12:57:54;100419.88;;;23.22;55.93
51781;BME280;37844;57.126;24.288;2023-07-20T13:00:38;100423.66;;;23.17;56.61
51781;BME280;37844;57.126;24.288;2023-07-20T13:03:22;100422.41;;;23.25;58.46
51781;BME280;37844;57.126;24.288;2023-07-20T13:06:06;100424.88;;;23.28;55.95
51781;BME280;37844;57.126;24.288;2023-07-20T13:08:50;100430.03;;;23.30;55.39
51781;BME280;37844;57.126;24.288;2023-07-20T13:11:39;100420.09;;;23.18;55.48
51781;BME280;37844;57.126;24.288;2023-07-20T13:14:23;100421.47;;;23.26;54.77
51781;BME280;37844;57.126;24.288;2023-07-20T13:17:07;100422.22;;;23.10;53.20
51781;BME280;37844;57.126;24.288;2023-07-20T13:19:52;100418.53;;;23.14;54.24
51781;BME280;37844;57.126;24.288;2023-07-20T13:22:37;100417.34;;;23.00;52.94
51781;BME280;37844;57.126;24.288;2023-07-20T13:25:21;100419.84;;;23.03;53.73
51781;BME280;37844;57.126;24.288;2023-07-20T13:28:06;100420.78;;;23.02;54.23
51781;BME280;37844;57.126;24.288;2023-07-20T13:30:50;100421.78;;;23.00;55.54
51781;BME280;37844;57.126;24.288;2023-07-20T13:33:35;100413.97;;;22.97;54.52
51781;BME280;37844;57.126;24.288;2023-07-20T13:36:19;100419.19;;;23.19;55.99
51781;BME280;37844;57.126;24.288;2023-07-20T13:39:04;100419.97;;;23.21;55.53
51781;BME280;37844;57.126;24.288;2023-07-20T13:41:49;100424.78;;;23.30;55.92
51781;BME280;37844;57.126;24.288;2023-07-20T13:44:33;100423.31;;;23.24;56.55
51781;BME280;37844;57.126;24.288;2023-07-20T13:47:17;100413.06;;;23.18;55.97
51781;BME280;37844;57.126;24.288;2023-07-20T13:50:02;100425.00;;;23.06;55.89
51781;BME280;37844;57.126;24.288;2023-07-20T13:52:46;100422.41;;;23.05;57.40
51781;BME280;37844;57.126;24.288;2023-07-20T13:55:30;100428.72;;;23.01;57.40
51781;BME280;37844;57.126;24.288;2023-07-20T13:58:17;100423.41;;;23.02;57.47
51781;BME280;37844;57.126;24.288;2023-07-20T14:01:01;100426.69;;;23.07;57.85
51781;BME280;37844;57.126;24.288;2023-07-20T14:03:45;100425.75;;;23.08;57.30
51781;BME280;37844;57.126;24.288;2023-07-20T14:06:30;100422.00;;;23.14;57.01
51781;BME280;37844;57.126;24.288;2023-07-20T14:09:15;100424.34;;;23.20;57.04
51781;BME280;37844;57.126;24.288;2023-07-20T14:11:59;100416.34;;;23.23;57.81
51781;BME280;37844;57.126;24.288;2023-07-20T14:14:43;100422.31;;;23.27;57.91
51781;BME280;37844;57.126;24.288;2023-07-20T14:17:28;100423.88;;;23.31;57.05
51781;BME280;37844;57.126;24.288;2023-07-20T14:20:12;100426.56;;;23.29;57.57
51781;BME280;37844;57.126;24.288;2023-07-20T14:22:56;100418.84;;;23.06;57.30